• Join FlightAware (Why Join?)
  • Login
  • US Flag 
04:41PM EDT


 

Airport Tracker/Info


-or-


 

Live Flight TrackerFlight Track Log ✈ FIV602 ✈ 17-Dec-2013 ✈ KICT - KADM

Flight Track Log - Related Links

Times and Time Zones

All times are in EST time to prevent confusion due to time zone crossing. See the FIV602 flight status page for this flight to view local times or setup timezone preferences in your user account.

Time Position Orientation Groundspeed Altitude Reporting Facility
EST Latitude Longitude Course Direction KTS MPH feet Rate Location/Type
04:11PM 37.6528 -97.4233 46° Northeast 128 147 2,000  Level Kansas City Center
04:12PM 37.7033 -97.3564 46° Northeast 244 281 10,500 4,860 Climbing Kansas City Center
04:14PM 37.6336 -97.3458 173° South 269 310 14,800 3,360 Climbing Kansas City Center
04:15PM 37.5364 -97.3594 186° South 351 404 17,500 2,460 Climbing Kansas City Center
04:16PM 37.4164 -97.3761 186° South 415 478 20,000 2,400 Climbing Kansas City Center
04:17PM 37.2997 -97.3875 184° South 430 495 22,500 2,460 Climbing Kansas City Center
04:18PM 37.1481 -97.3289 163° South 471 542 25,100 1,980 Climbing Kansas City Center
04:19PM 37.0172 -97.2736 161° South 485 558 26,700 900 Climbing Kansas City Center
04:20PM 36.8822 -97.2150 161° South 500 575 27,000 120 Climbing Kansas City Center
04:21PM 36.7469 -97.1600 162° South 507 583 27,000  Level Kansas City Center
04:22PM 36.6097 -97.1475 176° South 501 577 27,000  Level Kansas City Center
04:23PM 36.4708 -97.1439 179° South 497 572 27,000  Level Kansas City Center
04:24PM 36.3022 -97.1333 177° South 504 580 27,000  Level Kansas City Center
04:25PM 36.1650 -97.1256 177° South 498 573 27,000  Level Kansas City Center
04:26PM 36.0264 -97.1181 177° South 496 571 27,000  Level Kansas City Center
04:27PM 35.8864 -97.1106 178° South 500 575 27,000  Level Kansas City Center
04:28PM 35.7475 -97.1017 177° South 499 574 27,000 -240 Level Kansas City Center
04:29PM 35.6094 -97.0950 178° South 495 570 26,600 -1,440 Descending Fort Worth Center
04:30PM 35.4736 -97.0864 177° South 485 558 24,100 -1,920 Descending Fort Worth Center
04:31PM 35.3425 -97.0806 178° South 468 539 22,600 -2,160 Descending Fort Worth Center
04:32PM 35.2044 -97.0728 177° South 444 511 19,700 -2,580 Descending Fort Worth Center
04:33PM 35.0792 -97.0664 178° South 415 478 17,300 -1,800 Descending Fort Worth Center
04:34PM 34.9653 -97.0600 177° South 407 468 16,000 -660 Descending Fort Worth Center
04:35PM 34.8539 -97.0542 178° South 400 460 16,000 -780 Level Fort Worth Center
04:36PM 34.7489 -97.0706 187° South 376 433 14,500 -2,220 Descending Fort Worth Center
04:37PM 34.6525 -97.1067 197° South 364 419 11,500 -2,820 Descending Fort Worth Center
04:38PM 34.5581 -97.0831 168° South 352 405 8,700 -2,460 Descending Fort Worth Center
04:39PM 34.4872 -97.0611 166° South 274 315 6,500 -2,220 Descending Fort Worth Center
04:40PM 34.4097 -97.0406 168° South 249 287 4,200 -1,800 Descending Fort Worth Center
04:41PM 34.3589 -97.0361 176° South 204 235 2,800 -1,380 Descending Fort Worth Center
04:43PM 34.3000 -97.0167 180° South  Level FlightAware Approximate